createdAt,value
2017-08-15T00:00:21.294Z,18.90
2017-08-15T00:02:48.825Z,18.80
2017-08-15T00:05:16.374Z,18.80
2017-08-15T00:07:43.913Z,18.90
2017-08-15T00:10:11.460Z,18.90
2017-08-15T00:12:38.982Z,18.90
2017-08-15T00:15:06.517Z,18.90
2017-08-15T00:17:34.047Z,18.90
2017-08-15T00:20:01.571Z,18.80
2017-08-15T00:22:29.115Z,18.80
2017-08-15T00:24:56.646Z,18.80
2017-08-15T00:27:24.174Z,18.80
2017-08-15T00:29:51.706Z,18.70
2017-08-15T00:32:19.275Z,18.70
2017-08-15T00:34:46.815Z,18.70
2017-08-15T00:37:14.375Z,18.70
2017-08-15T00:39:41.910Z,18.70
2017-08-15T00:42:09.439Z,18.70
2017-08-15T00:44:36.980Z,18.70
2017-08-15T00:47:04.541Z,18.60
2017-08-15T00:49:32.078Z,18.70
2017-08-15T00:51:59.607Z,18.70
2017-08-15T00:54:27.142Z,18.70
2017-08-15T00:56:54.705Z,18.70
2017-08-15T00:59:22.235Z,18.60
2017-08-15T01:01:49.775Z,18.60
2017-08-15T01:04:17.308Z,18.70
2017-08-15T01:06:44.838Z,18.60
2017-08-15T01:09:12.403Z,18.60
2017-08-15T01:11:39.942Z,18.60
2017-08-15T01:14:07.507Z,18.60
2017-08-15T01:16:35.047Z,18.50
2017-08-15T01:19:02.587Z,18.50
2017-08-15T01:21:30.114Z,18.50
2017-08-15T01:23:57.642Z,18.50
2017-08-15T01:26:25.179Z,18.50
2017-08-15T01:28:52.723Z,18.50
2017-08-15T01:31:20.262Z,18.50
2017-08-15T01:33:47.797Z,18.50
2017-08-15T01:36:15.356Z,18.50
2017-08-15T01:38:42.884Z,18.40
2017-08-15T01:41:10.445Z,18.40
2017-08-15T01:43:37.998Z,18.50
2017-08-15T01:46:05.539Z,18.50
2017-08-15T01:48:33.082Z,18.40
2017-08-15T01:51:00.609Z,18.40
2017-08-15T01:53:28.134Z,18.40
2017-08-15T01:55:55.657Z,18.40
2017-08-15T02:07:01.290Z,18.40
2017-08-15T02:09:28.851Z,18.40
2017-08-15T02:11:56.391Z,18.40
2017-08-15T02:14:23.931Z,18.40
2017-08-15T02:16:51.464Z,18.40
2017-08-15T02:19:19.016Z,18.40
2017-08-15T02:21:46.541Z,18.40
2017-08-15T02:24:14.103Z,18.40
2017-08-15T02:26:41.635Z,18.40
2017-08-15T02:29:09.195Z,18.30
2017-08-15T02:31:36.727Z,18.30
2017-08-15T02:34:04.284Z,18.30
2017-08-15T02:36:31.814Z,18.30
2017-08-15T02:38:59.347Z,18.30
2017-08-15T02:41:26.914Z,18.30
2017-08-15T02:43:54.442Z,18.30
2017-08-15T02:46:21.997Z,18.30
2017-08-15T02:48:49.528Z,18.30
2017-08-15T02:51:17.086Z,18.20
2017-08-15T02:53:44.619Z,18.30
2017-08-15T02:56:12.173Z,18.30
2017-08-15T02:58:39.707Z,18.20
2017-08-15T03:01:07.279Z,18.20
2017-08-15T03:03:34.807Z,18.10
2017-08-15T03:06:02.339Z,18.00
2017-08-15T03:08:29.887Z,17.90
2017-08-15T03:10:57.419Z,17.90
2017-08-15T03:13:24.955Z,17.90
2017-08-15T03:15:52.481Z,17.90
2017-08-15T03:18:20.047Z,17.90
2017-08-15T03:20:47.585Z,17.90
2017-08-15T03:23:15.153Z,17.90
2017-08-15T03:25:42.689Z,17.90
2017-08-15T03:28:10.242Z,17.90
2017-08-15T03:30:37.764Z,17.80
2017-08-15T03:33:05.340Z,17.80
2017-08-15T03:35:32.874Z,17.70
2017-08-15T03:38:01.140Z,17.70
2017-08-15T03:40:28.685Z,17.70
2017-08-15T03:42:56.218Z,17.70
2017-08-15T03:45:23.771Z,17.60
2017-08-15T03:47:51.307Z,17.60
2017-08-15T03:50:18.876Z,17.60
2017-08-15T03:52:46.406Z,17.50
2017-08-15T03:55:13.958Z,17.50
2017-08-15T03:57:41.486Z,17.50
2017-08-15T04:00:09.044Z,17.40
2017-08-15T04:02:36.570Z,17.50
2017-08-15T04:05:04.134Z,17.40
2017-08-15T04:07:31.662Z,17.40
2017-08-15T04:09:59.240Z,17.40
2017-08-15T04:12:26.771Z,17.30
2017-08-15T04:14:54.307Z,17.30
2017-08-15T04:17:21.855Z,17.30
2017-08-15T04:19:49.387Z,17.20
2017-08-15T04:22:16.936Z,17.30
2017-08-15T04:24:44.473Z,17.30
2017-08-15T04:27:12.038Z,17.30
2017-08-15T04:29:39.575Z,17.30
2017-08-15T04:32:07.147Z,17.40
2017-08-15T04:34:34.692Z,17.50
2017-08-15T04:37:05.263Z,17.50
2017-08-15T04:39:32.788Z,17.50
2017-08-15T04:42:00.330Z,17.50
2017-08-15T04:44:27.858Z,17.60
2017-08-15T04:46:55.422Z,17.60
2017-08-15T04:49:22.946Z,17.70
2017-08-15T04:51:50.475Z,17.70
2017-08-15T04:54:18.258Z,17.70
2017-08-15T04:56:45.807Z,17.80
2017-08-15T04:59:13.379Z,17.80
2017-08-15T05:01:40.914Z,17.90
2017-08-15T05:04:08.470Z,17.90
2017-08-15T05:06:36.002Z,17.90
2017-08-15T05:09:03.559Z,17.90
2017-08-15T05:11:31.088Z,17.90
2017-08-15T05:13:58.674Z,18.00
2017-08-15T05:16:26.203Z,18.10
2017-08-15T05:18:53.749Z,18.20
2017-08-15T05:21:21.279Z,18.10
2017-08-15T05:23:48.830Z,18.70
2017-08-15T05:26:16.363Z,19.00
2017-08-15T05:28:43.919Z,19.50
2017-08-15T05:31:11.450Z,20.40
2017-08-15T05:33:38.981Z,21.20
2017-08-15T05:36:06.546Z,20.60
2017-08-15T05:38:34.125Z,20.10
2017-08-15T05:41:01.812Z,20.10
2017-08-15T05:43:29.363Z,20.00
2017-08-15T05:45:56.931Z,20.40
2017-08-15T05:48:24.566Z,21.20
2017-08-15T05:50:52.134Z,21.50
2017-08-15T05:53:19.658Z,21.70
2017-08-15T05:55:47.219Z,21.40
2017-08-15T05:58:14.761Z,21.80
2017-08-15T06:00:43.199Z,22.00
2017-08-15T06:03:10.751Z,22.00
2017-08-15T06:05:38.288Z,21.90
2017-08-15T06:08:05.883Z,21.90
2017-08-15T06:10:33.415Z,22.00
2017-08-15T06:13:01.016Z,21.80
2017-08-15T06:15:28.554Z,21.30
2017-08-15T06:17:56.098Z,21.00
2017-08-15T06:20:23.632Z,21.20
2017-08-15T06:22:51.187Z,21.30
2017-08-15T06:25:18.722Z,21.20
2017-08-15T06:27:46.281Z,21.20
2017-08-15T06:30:13.811Z,21.10
2017-08-15T06:32:41.358Z,21.20
2017-08-15T06:35:08.883Z,21.00
2017-08-15T06:37:37.322Z,21.30
2017-08-15T06:40:04.863Z,21.20
2017-08-15T06:42:34.804Z,21.80
2017-08-15T06:45:02.470Z,22.60
2017-08-15T06:47:30.008Z,22.90
2017-08-15T06:49:57.551Z,23.90
2017-08-15T06:52:25.095Z,24.00
2017-08-15T06:54:52.631Z,25.00
2017-08-15T06:57:20.173Z,25.70
2017-08-15T06:59:47.727Z,25.60
2017-08-15T07:02:15.292Z,26.00
2017-08-15T07:04:42.822Z,26.70
2017-08-15T07:07:10.409Z,26.30
2017-08-15T07:09:37.953Z,26.30
2017-08-15T07:12:05.496Z,25.90
2017-08-15T07:14:33.183Z,26.20
2017-08-15T07:17:00.714Z,27.00
2017-08-15T07:19:29.054Z,27.20
2017-08-15T07:21:56.691Z,27.20
2017-08-15T07:24:24.234Z,26.80
2017-08-15T07:26:53.635Z,27.10
2017-08-15T07:29:21.167Z,28.00
2017-08-15T07:31:49.510Z,28.90
2017-08-15T07:34:17.040Z,28.90
2017-08-15T07:36:44.619Z,28.40
2017-08-15T07:39:12.183Z,28.50
2017-08-15T07:41:41.895Z,28.20
2017-08-15T07:44:09.490Z,28.70
2017-08-15T07:46:37.834Z,27.70
2017-08-15T07:49:05.387Z,27.70
2017-08-15T07:51:32.951Z,28.20
2017-08-15T07:54:00.507Z,27.40
2017-08-15T07:56:28.177Z,28.10
2017-08-15T07:58:55.730Z,28.30
2017-08-15T08:01:23.280Z,29.10
2017-08-15T08:03:50.814Z,29.20
2017-08-15T08:06:19.135Z,28.00
2017-08-15T08:08:46.702Z,28.00
2017-08-15T08:11:14.267Z,27.50
2017-08-15T08:13:41.823Z,27.90
2017-08-15T08:16:09.386Z,28.20
2017-08-15T08:18:36.952Z,27.50
2017-08-15T08:21:04.506Z,27.30
2017-08-15T08:23:32.064Z,26.80
2017-08-15T08:25:59.608Z,26.60
2017-08-15T08:28:27.163Z,26.20
2017-08-15T08:30:54.699Z,26.60
2017-08-15T08:33:23.126Z,27.30
2017-08-15T08:35:50.658Z,27.30
2017-08-15T08:38:18.214Z,27.80
2017-08-15T08:40:49.421Z,28.00
2017-08-15T08:43:17.974Z,28.40
2017-08-15T08:45:45.507Z,28.40
2017-08-15T08:48:13.090Z,27.60
2017-08-15T08:50:40.622Z,27.90
2017-08-15T08:53:08.148Z,28.30
2017-08-15T08:55:35.683Z,28.40
2017-08-15T08:58:03.242Z,28.40
2017-08-15T09:00:30.776Z,28.00
2017-08-15T09:02:58.300Z,29.00
2017-08-15T09:05:25.826Z,28.20
2017-08-15T09:07:53.347Z,28.20
2017-08-15T09:10:20.935Z,28.10
2017-08-15T09:12:48.466Z,27.70
2017-08-15T09:15:16.023Z,27.20
2017-08-15T09:17:43.619Z,27.40
2017-08-15T09:20:11.178Z,27.50
2017-08-15T09:22:38.710Z,27.70
2017-08-15T09:25:06.259Z,27.70
2017-08-15T09:27:34.555Z,28.10
2017-08-15T09:30:02.139Z,28.00
2017-08-15T09:32:29.689Z,28.00
2017-08-15T09:34:57.222Z,27.90
2017-08-15T09:37:25.519Z,27.80
2017-08-15T09:39:53.050Z,27.80
2017-08-15T09:42:21.389Z,28.60
2017-08-15T09:44:48.947Z,28.60
2017-08-15T09:47:16.498Z,27.90
2017-08-15T09:49:44.031Z,28.30
2017-08-15T09:52:11.591Z,28.30
2017-08-15T09:54:39.123Z,28.40
2017-08-15T09:57:06.646Z,28.40
2017-08-15T09:59:34.182Z,28.50
2017-08-15T10:02:01.718Z,28.50
2017-08-15T10:04:30.043Z,28.70
2017-08-15T10:06:57.577Z,28.70
2017-08-15T10:09:25.110Z,28.70
2017-08-15T10:11:53.453Z,28.90
2017-08-15T10:14:20.998Z,28.90
2017-08-15T10:16:48.531Z,28.80
2017-08-15T10:19:16.071Z,29.00
2017-08-15T10:21:44.363Z,28.90
2017-08-15T10:24:11.940Z,28.90
2017-08-15T10:26:39.466Z,28.80
2017-08-15T10:29:07.785Z,28.50
2017-08-15T10:31:35.310Z,28.50
2017-08-15T10:34:03.632Z,29.00
2017-08-15T10:36:31.203Z,29.00
2017-08-15T10:39:06.766Z,28.60
2017-08-15T10:41:40.410Z,28.40
2017-08-15T10:44:08.228Z,28.30
2017-08-15T10:46:35.782Z,29.10
2017-08-15T10:49:03.310Z,29.10
2017-08-15T10:51:30.894Z,29.20
2017-08-15T10:53:58.422Z,29.40
2017-08-15T10:56:26.025Z,29.40
2017-08-15T10:58:53.546Z,29.10
2017-08-15T11:01:21.268Z,29.00
2017-08-15T11:03:48.834Z,29.10
2017-08-15T11:06:16.394Z,29.10
2017-08-15T11:08:44.030Z,29.00
2017-08-15T11:11:11.588Z,29.10
2017-08-15T11:13:39.187Z,28.80
2017-08-15T11:16:06.746Z,28.40
2017-08-15T11:18:34.306Z,28.80
2017-08-15T11:21:01.875Z,28.90
2017-08-15T11:23:30.182Z,29.20
2017-08-15T11:25:57.746Z,29.20
2017-08-15T11:28:25.274Z,29.00
2017-08-15T11:30:52.899Z,29.00
2017-08-15T11:33:20.451Z,28.90
2017-08-15T11:35:48.011Z,28.50
2017-08-15T11:38:15.575Z,28.10
2017-08-15T11:40:45.999Z,28.10
2017-08-15T11:43:20.374Z,27.90
2017-08-15T11:45:48.667Z,27.70
2017-08-15T11:48:16.271Z,27.70
2017-08-15T11:50:43.802Z,27.70
2017-08-15T11:53:11.378Z,27.50
2017-08-15T11:55:38.912Z,28.00
2017-08-15T11:58:06.462Z,28.10
2017-08-15T12:00:33.995Z,28.20
2017-08-15T12:03:01.581Z,27.90
2017-08-15T12:05:29.147Z,28.20
2017-08-15T12:07:57.434Z,27.80
2017-08-15T12:10:25.038Z,27.80
2017-08-15T12:12:52.599Z,27.50
2017-08-15T12:15:20.142Z,27.30
2017-08-15T12:17:47.707Z,27.60
2017-08-15T12:20:15.234Z,27.80
2017-08-15T12:22:42.835Z,27.80
2017-08-15T12:25:10.394Z,28.00
2017-08-15T12:27:37.991Z,27.80
2017-08-15T12:30:05.616Z,27.80
2017-08-15T12:32:33.183Z,27.60
2017-08-15T12:35:00.714Z,27.40
2017-08-15T12:37:28.246Z,27.80
2017-08-15T12:39:55.863Z,27.80
2017-08-15T12:42:23.395Z,28.10
2017-08-15T12:44:50.930Z,28.10
2017-08-15T12:47:19.224Z,27.70
2017-08-15T12:49:46.942Z,27.70
2017-08-15T12:52:14.462Z,27.70
2017-08-15T12:54:41.994Z,27.80
2017-08-15T12:57:10.328Z,28.00
2017-08-15T12:59:37.866Z,28.00
2017-08-15T13:02:05.440Z,27.90
2017-08-15T13:04:32.983Z,28.00
2017-08-15T13:07:00.518Z,28.10
2017-08-15T13:09:28.844Z,28.30
2017-08-15T13:11:56.374Z,28.30
2017-08-15T13:14:23.898Z,28.40
2017-08-15T13:16:51.514Z,28.40
2017-08-15T13:19:19.047Z,28.20
2017-08-15T13:21:46.941Z,28.10
2017-08-15T13:24:14.479Z,28.10
2017-08-15T13:26:42.039Z,28.10
2017-08-15T13:29:09.571Z,28.10
2017-08-15T13:31:37.866Z,28.00
2017-08-15T13:34:06.167Z,28.30
2017-08-15T13:36:33.699Z,28.30
2017-08-15T13:39:02.002Z,28.50
2017-08-15T13:41:29.535Z,28.50
2017-08-15T13:43:57.143Z,28.40
2017-08-15T13:46:24.675Z,28.10
2017-08-15T13:48:52.211Z,28.10
2017-08-15T13:51:20.510Z,27.90
2017-08-15T13:53:48.071Z,27.90
2017-08-15T13:56:15.671Z,28.00
2017-08-15T13:58:43.225Z,28.00
2017-08-15T14:01:10.759Z,27.90
2017-08-15T14:03:38.319Z,27.90
2017-08-15T14:06:05.847Z,27.90
2017-08-15T14:08:33.390Z,27.60
2017-08-15T14:11:00.926Z,27.70
2017-08-15T14:13:28.452Z,27.70
2017-08-15T14:15:55.987Z,27.60
2017-08-15T14:18:23.518Z,27.50
2017-08-15T14:20:51.046Z,27.60
2017-08-15T14:23:18.634Z,27.60
2017-08-15T14:25:46.202Z,27.70
2017-08-15T14:28:13.730Z,27.60
2017-08-15T14:30:41.311Z,27.70
2017-08-15T14:33:08.874Z,27.50
2017-08-15T14:35:36.398Z,27.50
2017-08-15T14:38:03.990Z,27.60
2017-08-15T14:40:36.253Z,27.60
2017-08-15T14:43:04.732Z,27.50
2017-08-15T14:45:32.255Z,27.50
2017-08-15T14:48:00.575Z,27.80
2017-08-15T14:50:28.107Z,27.80
2017-08-15T14:52:56.430Z,28.30
2017-08-15T14:55:23.974Z,28.20
2017-08-15T14:57:51.531Z,28.30
2017-08-15T15:00:19.059Z,28.30
2017-08-15T15:02:47.395Z,27.80
2017-08-15T15:05:14.932Z,27.80
2017-08-15T15:07:43.545Z,28.00
2017-08-15T15:10:11.079Z,28.00
2017-08-15T15:12:38.616Z,28.10
2017-08-15T15:15:06.150Z,28.20
2017-08-15T15:17:33.679Z,28.00
2017-08-15T15:20:01.234Z,28.00
2017-08-15T15:22:28.774Z,28.20
2017-08-15T15:24:56.323Z,28.40
2017-08-15T15:27:23.851Z,28.40
2017-08-15T15:29:52.187Z,28.40
2017-08-15T15:32:19.722Z,28.40
2017-08-15T15:34:47.300Z,28.40
2017-08-15T15:37:14.840Z,28.40
2017-08-15T15:39:42.435Z,28.20
2017-08-15T15:42:11.403Z,28.20
2017-08-15T15:44:38.929Z,28.20
2017-08-15T15:47:07.250Z,28.10
2017-08-15T15:49:34.842Z,28.10
2017-08-15T15:52:02.406Z,28.20
2017-08-15T15:54:29.931Z,28.20
2017-08-15T15:56:57.516Z,27.80
2017-08-15T15:59:25.067Z,27.70
2017-08-15T16:01:52.631Z,27.60
2017-08-15T16:04:20.162Z,27.60
2017-08-15T16:06:47.699Z,27.60
2017-08-15T16:09:15.994Z,27.40
2017-08-15T16:11:43.586Z,27.30
2017-08-15T16:14:11.117Z,27.50
2017-08-15T16:16:38.717Z,27.40
2017-08-15T16:19:06.277Z,27.40
2017-08-15T16:21:33.835Z,27.40
2017-08-15T16:24:01.394Z,27.00
2017-08-15T16:26:28.946Z,27.00
2017-08-15T16:28:56.511Z,27.00
2017-08-15T16:31:24.070Z,27.10
2017-08-15T16:33:51.619Z,26.90
2017-08-15T16:36:19.153Z,26.80
2017-08-15T16:38:47.585Z,26.60
2017-08-15T16:41:15.212Z,26.60
2017-08-15T16:43:42.759Z,26.50
2017-08-15T16:46:11.067Z,26.40
2017-08-15T16:48:38.610Z,26.40
2017-08-15T16:51:06.166Z,26.30
2017-08-15T16:53:33.695Z,26.30
2017-08-15T16:56:01.263Z,26.30
2017-08-15T16:58:29.563Z,26.20
2017-08-15T17:00:57.127Z,26.20
2017-08-15T17:03:24.717Z,26.10
2017-08-15T17:05:52.279Z,26.00
2017-08-15T17:08:19.810Z,26.10
2017-08-15T17:10:47.399Z,26.00
2017-08-15T17:13:14.931Z,26.00
2017-08-15T17:15:42.519Z,26.00
2017-08-15T17:18:10.051Z,26.00
2017-08-15T17:20:37.580Z,26.00
2017-08-15T17:23:05.147Z,26.00
2017-08-15T17:25:33.496Z,25.90
2017-08-15T17:28:01.051Z,25.80
2017-08-15T17:30:28.578Z,25.70
2017-08-15T17:32:56.134Z,25.50
2017-08-15T17:35:23.730Z,25.30
2017-08-15T17:37:51.399Z,25.30
2017-08-15T17:40:18.939Z,25.30
2017-08-15T17:42:46.502Z,25.10
2017-08-15T17:45:14.039Z,25.00
2017-08-15T17:47:41.575Z,25.00
2017-08-15T17:50:09.904Z,24.90
2017-08-15T17:52:37.459Z,24.90
2017-08-15T17:55:05.025Z,24.80
2017-08-15T17:57:32.563Z,24.80
2017-08-15T18:00:00.132Z,24.80
2017-08-15T18:02:27.669Z,24.80
2017-08-15T18:04:56.142Z,24.70
2017-08-15T18:07:23.692Z,24.60
2017-08-15T18:09:51.236Z,24.60
2017-08-15T18:12:18.763Z,24.60
2017-08-15T18:14:46.294Z,24.60
2017-08-15T18:17:14.607Z,24.40
2017-08-15T18:19:42.167Z,24.40
2017-08-15T18:22:09.698Z,24.50
2017-08-15T18:24:37.247Z,24.40
2017-08-15T18:27:05.542Z,24.30
2017-08-15T18:29:33.070Z,24.20
2017-08-15T18:32:00.691Z,24.30
2017-08-15T18:34:28.351Z,24.20
2017-08-15T18:36:55.882Z,24.20
2017-08-15T18:39:23.419Z,24.20
2017-08-15T18:41:51.727Z,24.20
2017-08-15T18:44:19.274Z,24.20
2017-08-15T18:46:47.575Z,24.10
2017-08-15T18:49:15.159Z,24.10
2017-08-15T18:51:42.692Z,24.10
2017-08-15T18:54:10.214Z,24.10
2017-08-15T18:56:37.747Z,24.10
2017-08-15T18:59:05.288Z,24.10
2017-08-15T19:01:32.963Z,24.10
2017-08-15T19:04:00.510Z,24.00
2017-08-15T19:06:28.079Z,23.90
2017-08-15T19:08:55.606Z,23.90
2017-08-15T19:11:23.131Z,23.90
2017-08-15T19:13:50.659Z,24.00
2017-08-15T19:16:18.193Z,24.00
2017-08-15T19:18:45.786Z,24.10
2017-08-15T19:21:13.307Z,24.10
2017-08-15T19:23:40.844Z,24.10
2017-08-15T19:26:09.151Z,24.00
2017-08-15T19:28:36.748Z,24.00
2017-08-15T19:31:04.298Z,23.70
2017-08-15T19:33:31.862Z,23.10
2017-08-15T19:35:59.394Z,22.70
2017-08-15T19:38:26.967Z,22.20
2017-08-15T19:40:54.545Z,21.80
2017-08-15T19:43:22.107Z,21.60
2017-08-15T19:45:49.667Z,21.50
2017-08-15T19:48:17.198Z,21.40
2017-08-15T19:50:44.734Z,21.20
2017-08-15T19:53:12.266Z,21.10
2017-08-15T19:55:39.798Z,20.90
2017-08-15T19:58:07.335Z,20.80
2017-08-15T20:00:34.886Z,20.70
2017-08-15T20:03:03.205Z,20.50
2017-08-15T20:05:30.762Z,20.50
2017-08-15T20:07:58.299Z,20.40
2017-08-15T20:10:25.890Z,20.50
2017-08-15T20:12:53.421Z,20.50
2017-08-15T20:15:20.975Z,20.50
2017-08-15T20:17:48.515Z,20.70
2017-08-15T20:20:16.094Z,20.50
2017-08-15T20:22:43.622Z,20.40
2017-08-15T20:25:11.155Z,20.40
2017-08-15T20:27:38.716Z,20.50
2017-08-15T20:30:06.255Z,20.60
2017-08-15T20:32:33.798Z,20.50
2017-08-15T20:35:01.399Z,20.50
2017-08-15T20:37:28.934Z,20.50
2017-08-15T20:39:56.520Z,20.50
2017-08-15T20:42:24.078Z,20.50
2017-08-15T20:44:51.611Z,20.50
2017-08-15T20:47:19.163Z,20.50
2017-08-15T20:49:46.706Z,20.40
2017-08-15T20:52:14.278Z,20.50
2017-08-15T20:54:42.604Z,20.60
2017-08-15T20:57:10.150Z,20.60
2017-08-15T20:59:37.711Z,20.50
2017-08-15T21:02:05.287Z,20.50
2017-08-15T21:04:32.820Z,20.40
2017-08-15T21:07:00.358Z,20.40
2017-08-15T21:09:27.886Z,20.20
2017-08-15T21:11:55.411Z,20.20
2017-08-15T21:14:22.940Z,20.20
2017-08-15T21:16:50.470Z,20.20
2017-08-15T21:19:18.034Z,20.20
2017-08-15T21:21:45.575Z,20.20
2017-08-15T21:24:13.129Z,19.90
2017-08-15T21:26:40.656Z,19.90
2017-08-15T21:29:08.206Z,19.90
2017-08-15T21:31:35.743Z,19.90
2017-08-15T21:34:03.303Z,19.80
2017-08-15T21:36:30.847Z,19.80
2017-08-15T21:38:58.442Z,19.80
2017-08-15T21:41:25.976Z,19.80
2017-08-15T21:43:53.563Z,19.70
2017-08-15T21:46:21.110Z,19.70
2017-08-15T21:48:48.638Z,19.60
2017-08-15T21:51:16.192Z,19.60
2017-08-15T21:53:43.725Z,19.60
2017-08-15T21:56:17.019Z,19.60
2017-08-15T21:58:44.547Z,19.70
2017-08-15T22:01:17.946Z,19.60
2017-08-15T22:03:46.247Z,19.70
2017-08-15T22:06:13.803Z,19.70
2017-08-15T22:08:41.363Z,19.70
2017-08-15T22:11:08.937Z,19.70
2017-08-15T22:13:36.519Z,19.60
2017-08-15T22:16:04.060Z,19.60
2017-08-15T22:18:31.594Z,19.70
2017-08-15T22:20:59.890Z,19.70
2017-08-15T22:23:27.427Z,19.70
2017-08-15T22:25:55.767Z,19.60
2017-08-15T22:28:23.416Z,19.60
2017-08-15T22:30:50.951Z,19.70
2017-08-15T22:33:18.518Z,19.70
2017-08-15T22:35:46.059Z,19.70
2017-08-15T22:38:13.614Z,19.70
2017-08-15T22:40:41.159Z,19.70
2017-08-15T22:43:08.723Z,19.70
2017-08-15T22:45:36.359Z,19.70
2017-08-15T22:48:03.935Z,19.70
2017-08-15T22:50:31.473Z,19.60
2017-08-15T22:52:59.015Z,19.70
2017-08-15T22:55:26.547Z,19.60
2017-08-15T22:57:54.878Z,19.50
2017-08-15T23:00:22.435Z,19.40
2017-08-15T23:02:49.981Z,19.40
2017-08-15T23:05:17.531Z,19.40
2017-08-15T23:07:45.106Z,19.50
2017-08-15T23:10:12.679Z,19.40
2017-08-15T23:12:40.242Z,19.40
2017-08-15T23:15:07.807Z,19.40
2017-08-15T23:17:35.349Z,19.20
2017-08-15T23:20:02.908Z,19.30
2017-08-15T23:22:30.434Z,19.40
2017-08-15T23:24:58.862Z,19.30
2017-08-15T23:27:26.386Z,19.30
2017-08-15T23:29:53.938Z,19.30
2017-08-15T23:32:22.254Z,19.20
2017-08-15T23:34:49.826Z,19.10
2017-08-15T23:37:17.351Z,19.20
2017-08-15T23:39:44.952Z,19.30
2017-08-15T23:42:12.507Z,19.20
2017-08-15T23:44:40.039Z,19.30
2017-08-15T23:47:07.591Z,19.30
2017-08-15T23:49:35.178Z,19.40
2017-08-15T23:52:02.743Z,19.30
2017-08-15T23:54:30.278Z,19.30
2017-08-15T23:56:57.866Z,19.40
2017-08-15T23:59:25.437Z,19.40
